Time;durP1;ratioP1;P1;durP2;ratioP2;P2;SDS_P1;SDS_P2;PMS_P1;PMS_P2;Temp;Humidity;BMP_temperature;BMP_pressure;BME280_temperature;BME280_humidity;BME280_pressure;Samples;Min_cycle;Max_cycle;Signal;HPM_P1;HPM_P2
2020/12/30 00:00:47;;;;;;;7.53;2.58;;;;;;;2.08;nan;94756.88;4939885;28;20589;-68
2020/12/30 00:03:17;;;;;;;8.63;3.03;;;;;;;2.05;nan;94751.09;4940752;28;20273;-68
2020/12/30 00:05:45;;;;;;;6.90;2.50;;;;;;;2.07;nan;94760.34;4950332;28;20223;-68
2020/12/30 00:08:12;;;;;;;5.85;2.45;;;;;;;2.06;nan;94766.38;4941457;28;20565;-68
2020/12/30 00:10:39;;;;;;;5.40;2.72;;;;;;;2.09;nan;94766.22;4942149;28;20746;-68
2020/12/30 00:13:07;;;;;;;5.57;2.22;;;;;;;2.10;nan;94767.03;4938537;28;21034;-69
2020/12/30 00:15:33;;;;;;;2.60;2.05;;;;;;;2.04;nan;94759.69;4940222;28;20598;-69
2020/12/30 00:18:00;;;;;;;4.05;1.83;;;;;;;1.97;nan;94766.94;4934356;28;20850;-68
2020/12/30 00:20:27;;;;;;;2.80;1.90;;;;;;;1.91;nan;94762.16;4938830;28;20234;-69
2020/12/30 00:22:54;;;;;;;4.72;1.65;;;;;;;1.88;nan;94772.59;4938087;28;20679;-69
2020/12/30 00:25:21;;;;;;;3.30;1.85;;;;;;;1.88;nan;94767.47;4938009;28;20231;-69
2020/12/30 00:27:48;;;;;;;3.30;2.30;;;;;;;1.90;nan;94757.94;4937562;28;20864;-69
2020/12/30 00:30:17;;;;;;;3.67;2.15;;;;;;;1.93;nan;94770.56;4938209;28;20318;-68
2020/12/30 00:32:45;;;;;;;4.05;2.15;;;;;;;1.94;nan;94769.69;4935151;28;20273;-68
2020/12/30 00:35:13;;;;;;;6.00;1.73;;;;;;;1.89;nan;94758.84;4938493;28;20282;-68
2020/12/30 00:37:41;;;;;;;2.90;1.98;;;;;;;1.90;nan;94754.53;4937249;28;20689;-68
2020/12/30 00:40:08;;;;;;;2.10;1.70;;;;;;;2.00;nan;94774.44;4938359;28;20578;-68
2020/12/30 00:42:37;;;;;;;4.10;2.75;;;;;;;2.05;nan;94769.88;4937474;28;20278;-68
2020/12/30 00:45:06;;;;;;;2.03;1.45;;;;;;;2.05;nan;94774.19;4939024;28;20733;-68
2020/12/30 00:47:33;;;;;;;3.45;2.03;;;;;;;2.03;nan;94776.84;4938852;28;20294;-68
2020/12/30 00:50:00;;;;;;;7.40;2.60;;;;;;;2.07;nan;94778.28;4934076;28;20680;-68
2020/12/30 00:52:27;;;;;;;5.93;2.47;;;;;;;2.11;nan;94779.78;4937733;28;20267;-68
2020/12/30 00:54:54;;;;;;;4.28;2.38;;;;;;;2.09;nan;94784.19;4938797;28;20666;-69
2020/12/30 00:57:21;;;;;;;2.90;2.22;;;;;;;2.10;nan;94778.13;4937569;28;20654;-67
2020/12/30 00:59:49;;;;;;;6.82;2.60;;;;;;;2.19;nan;94792.13;4938483;28;20203;-67
2020/12/30 01:02:15;;;;;;;4.88;1.60;;;;;;;2.10;nan;94769.59;4938933;28;20246;-67
2020/12/30 01:04:42;;;;;;;2.92;2.08;;;;;;;2.20;nan;94789.50;4936031;28;20286;-67
2020/12/30 01:07:09;;;;;;;2.67;1.85;;;;;;;2.21;nan;94796.28;4931280;28;20654;-68
2020/12/30 01:09:36;;;;;;;3.55;2.00;;;;;;;2.25;nan;94797.75;4935633;28;20215;-65
2020/12/30 01:12:05;;;;;;;4.80;2.10;;;;;;;2.27;nan;94800.25;4936567;28;20302;-67
2020/12/30 01:14:32;;;;;;;8.75;2.40;;;;;;;2.27;nan;94800.25;4937235;28;20199;-67
2020/12/30 01:17:00;;;;;;;2.45;1.83;;;;;;;2.24;nan;94798.69;4931679;28;20618;-67
2020/12/30 01:19:27;;;;;;;6.15;2.60;;;;;;;2.26;nan;94801.13;4934078;28;20302;-68
2020/12/30 01:21:53;;;;;;;5.25;1.80;;;;;;;2.16;nan;94785.47;4936270;28;20225;-67
2020/12/30 01:24:20;;;;;;;2.95;1.70;;;;;;;2.23;nan;94794.47;4943986;28;20227;-68
2020/12/30 01:26:48;;;;;;;2.47;1.70;;;;;;;2.25;nan;94810.59;4936251;28;20752;-69
2020/12/30 01:29:15;;;;;;;3.88;1.98;;;;;;;2.17;nan;94805.06;4936805;28;20592;-68
2020/12/30 01:31:42;;;;;;;4.75;1.60;;;;;;;2.21;nan;94809.09;4935444;28;20295;-68
2020/12/30 01:34:10;;;;;;;3.03;1.75;;;;;;;2.20;nan;94807.44;4940036;28;20590;-67
2020/12/30 01:36:38;;;;;;;3.15;2.20;;;;;;;2.17;nan;94807.66;4936359;28;20650;-68
2020/12/30 01:39:05;;;;;;;3.35;1.52;;;;;;;2.13;nan;94808.72;4938153;28;20219;-68
2020/12/30 01:41:33;;;;;;;5.63;2.65;;;;;;;2.11;nan;94820.81;4935858;28;20365;-67
2020/12/30 01:44:02;;;;;;;6.10;2.15;;;;;;;2.05;nan;94816.03;4932061;28;20705;-69
2020/12/30 01:46:34;;;;;;;3.95;1.95;;;;;;;2.01;nan;94824.84;4935527;28;20259;-68
2020/12/30 01:49:04;;;;;;;5.80;2.70;;;;;;;2.03;nan;94817.88;4932531;28;20290;-68
2020/12/30 01:51:32;;;;;;;6.35;2.60;;;;;;;2.02;nan;94817.97;4936123;28;20953;-68
2020/12/30 01:54:00;;;;;;;4.00;2.70;;;;;;;1.99;nan;94818.94;4931510;28;20685;-68
2020/12/30 01:56:30;;;;;;;4.25;2.75;;;;;;;1.97;nan;94823.34;4935978;28;20514;-67
2020/12/30 01:58:57;;;;;;;3.42;2.22;;;;;;;1.98;nan;94830.13;4936662;28;20208;-69
2020/12/30 02:01:28;;;;;;;5.35;2.55;;;;;;;1.96;nan;94831.97;4936494;28;20313;-68
2020/12/30 02:03:58;;;;;;;4.70;2.55;;;;;;;1.93;nan;94831.31;4936389;28;20289;-67
2020/12/30 02:06:25;;;;;;;6.28;2.90;;;;;;;1.83;nan;94831.00;4937002;28;20930;-67
2020/12/30 02:08:53;;;;;;;3.45;2.17;;;;;;;1.90;nan;94836.59;4936578;28;20199;-68
2020/12/30 02:11:25;;;;;;;8.45;2.30;;;;;;;1.89;nan;94830.66;4935585;28;20384;-70
2020/12/30 02:14:06;;;;;;;6.32;2.55;;;;;;;1.84;nan;94837.78;4937695;28;20204;-70
2020/12/30 02:16:46;;;;;;;5.90;2.72;;;;;;;1.72;nan;94822.28;4935864;28;20227;-69
2020/12/30 02:19:13;;;;;;;5.40;3.30;;;;;;;1.87;nan;94849.59;4932736;28;20227;-68
2020/12/30 02:21:40;;;;;;;5.63;3.35;;;;;;;1.88;nan;94853.81;4936695;28;20281;-69
2020/12/30 02:24:11;;;;;;;4.05;2.60;;;;;;;1.85;nan;94852.25;4936559;28;20230;-68
2020/12/30 02:26:39;;;;;;;4.60;2.58;;;;;;;1.84;nan;94858.28;4934830;28;20289;-69
2020/12/30 02:29:06;;;;;;;5.35;3.20;;;;;;;1.80;nan;94851.72;4936660;28;20289;-67
2020/12/30 02:31:33;;;;;;;5.70;3.00;;;;;;;1.84;nan;94842.09;4935110;28;20309;-68
2020/12/30 02:33:59;;;;;;;7.90;2.75;;;;;;;1.90;nan;94852.81;4930451;28;20588;-69
2020/12/30 02:36:26;;;;;;;3.03;2.42;;;;;;;1.92;nan;94855.31;4937700;28;20531;-69
2020/12/30 02:38:54;;;;;;;3.15;2.70;;;;;;;1.89;nan;94846.06;4939762;28;20201;-68
2020/12/30 02:41:21;;;;;;;3.63;2.25;;;;;;;1.93;nan;94856.97;4939289;28;20184;-66
2020/12/30 02:43:49;;;;;;;4.05;2.42;;;;;;;1.93;nan;94856.97;4939383;28;20293;-68
2020/12/30 02:46:15;;;;;;;3.90;2.38;;;;;;;1.92;nan;94848.44;4939630;28;20338;-68
2020/12/30 02:48:42;;;;;;;3.63;2.20;;;;;;;1.90;nan;94850.25;4936692;28;20310;-68
2020/12/30 02:51:09;;;;;;;2.25;1.85;;;;;;;1.92;nan;94853.56;4939274;28;20306;-67
2020/12/30 02:53:36;;;;;;;2.50;1.80;;;;;;;1.88;nan;94852.09;4939523;28;20541;-68
2020/12/30 02:56:03;;;;;;;2.30;1.80;;;;;;;1.90;nan;94857.13;4939747;28;20286;-68
2020/12/30 02:58:30;;;;;;;3.35;1.80;;;;;;;1.85;nan;94852.25;4940166;28;20227;-67
2020/12/30 03:00:58;;;;;;;3.30;2.10;;;;;;;1.85;nan;94862.50;4940031;28;20823;-69
2020/12/30 03:03:25;;;;;;;2.88;2.03;;;;;;;1.88;nan;94862.34;4939220;28;20223;-68
2020/12/30 03:05:53;;;;;;;3.08;1.95;;;;;;;1.88;nan;94861.50;4940959;28;20648;-67
2020/12/30 03:08:20;;;;;;;2.10;1.58;;;;;;;1.86;nan;94856.47;4936679;28;20223;-68
2020/12/30 03:10:47;;;;;;;4.72;1.92;;;;;;;1.89;nan;94856.31;4939335;28;20286;-68
2020/12/30 03:13:14;;;;;;;3.53;2.53;;;;;;;1.91;nan;94859.59;4938637;28;20745;-68
2020/12/30 03:15:41;;;;;;;1.88;1.55;;;;;;;1.89;nan;94866.56;4940324;28;20627;-67
2020/12/30 03:18:08;;;;;;;3.58;2.63;;;;;;;1.83;nan;94851.53;4939346;28;20266;-67
2020/12/30 03:20:35;;;;;;;4.80;2.58;;;;;;;1.86;nan;94856.47;4939534;28;21166;-67
2020/12/30 03:23:02;;;;;;;2.53;1.75;;;;;;;1.81;nan;94863.63;4938837;28;20215;-67
2020/12/30 03:25:29;;;;;;;4.95;1.90;;;;;;;1.80;nan;94864.53;4939089;28;20634;-67
2020/12/30 03:27:56;;;;;;;1.85;1.55;;;;;;;1.80;nan;94864.53;4938693;28;20325;-68
2020/12/30 03:30:23;;;;;;;5.03;2.03;;;;;;;1.62;nan;94845.03;4939478;28;20894;-68
2020/12/30 03:32:50;;;;;;;3.05;2.10;;;;;;;1.79;nan;94862.03;4938242;28;20298;-68
2020/12/30 03:35:18;;;;;;;4.00;2.20;;;;;;;1.77;nan;94867.25;4938640;28;20607;-68
2020/12/30 03:37:45;;;;;;;2.20;1.75;;;;;;;1.80;nan;94864.53;4938408;28;20792;-68
2020/12/30 03:40:12;;;;;;;4.35;2.10;;;;;;;1.77;nan;94871.56;4938429;28;20294;-68
2020/12/30 03:42:39;;;;;;;2.75;1.85;;;;;;;1.77;nan;94871.56;4938706;28;20329;-68
2020/12/30 03:45:05;;;;;;;2.70;2.00;;;;;;;1.67;nan;94860.16;4938726;28;20690;-68
2020/12/30 03:47:32;;;;;;;3.92;1.92;;;;;;;1.73;nan;94875.19;4937057;28;20665;-68
2020/12/30 03:49:59;;;;;;;3.35;2.25;;;;;;;1.70;nan;94873.63;4937553;28;20513;-68
2020/12/30 03:52:27;;;;;;;5.65;2.55;;;;;;;1.66;nan;94882.41;4938811;28;20270;-68
2020/12/30 03:54:54;;;;;;;9.77;2.75;;;;;;;1.62;nan;94873.22;4938334;28;20707;-67
2020/12/30 03:57:21;;;;;;;3.55;2.38;;;;;;;1.64;nan;94876.53;4938230;28;20326;-68
2020/12/30 03:59:48;;;;;;;3.22;2.40;;;;;;;1.64;nan;94870.59;4938659;28;20199;-68
2020/12/30 04:02:14;;;;;;;5.53;2.63;;;;;;;1.62;nan;94870.66;4938293;28;20223;-68
2020/12/30 04:04:41;;;;;;;7.68;2.88;;;;;;;1.60;nan;94874.22;4938598;28;20658;-68
2020/12/30 04:07:08;;;;;;;8.70;2.30;;;;;;;1.56;nan;94868.44;4938238;28;20672;-68
2020/12/30 04:09:36;;;;;;;3.92;2.88;;;;;;;1.57;nan;94875.22;4938268;28;20203;-67
2020/12/30 04:12:03;;;;;;;4.10;2.78;;;;;;;1.65;nan;94873.06;4937836;28;20838;-67
2020/12/30 04:14:30;;;;;;;6.78;3.03;;;;;;;1.61;nan;94875.91;4938852;28;20234;-67
2020/12/30 04:16:58;;;;;;;7.18;2.92;;;;;;;1.60;nan;94880.19;4937280;28;20235;-67
2020/12/30 04:19:25;;;;;;;8.65;3.10;;;;;;;1.65;nan;94883.31;4939497;28;20590;-67
2020/12/30 04:21:52;;;;;;;4.85;3.25;;;;;;;1.71;nan;94885.53;4937701;28;20720;-67
2020/12/30 04:24:18;;;;;;;7.72;2.65;;;;;;;1.71;nan;94887.28;4937869;28;20247;-66
2020/12/30 04:26:46;;;;;;;4.70;2.92;;;;;;;1.76;nan;94891.25;4936924;28;20305;-66
2020/12/30 04:29:13;;;;;;;3.80;2.67;;;;;;;1.80;nan;94891.91;4938851;28;20863;-66
2020/12/30 04:31:40;;;;;;;4.18;2.50;;;;;;;1.85;nan;94893.28;4938352;28;20229;-67
2020/12/30 04:34:07;;;;;;;3.35;2.17;;;;;;;1.86;nan;94891.56;4937782;28;20620;-67
2020/12/30 04:36:34;;;;;;;3.92;2.42;;;;;;;1.90;nan;94895.59;4937136;28;20219;-67
2020/12/30 04:39:05;;;;;;;5.70;3.10;;;;;;;1.84;nan;94894.19;4938211;28;21148;-68
2020/12/30 04:41:33;;;;;;;6.32;2.70;;;;;;;1.81;nan;94893.53;4936856;28;20306;-68
2020/12/30 04:44:02;;;;;;;3.90;2.47;;;;;;;1.85;nan;94900.97;4938277;28;20284;-68
2020/12/30 04:46:29;;;;;;;5.05;2.35;;;;;;;1.92;nan;94902.28;4937289;28;20353;-67
2020/12/30 04:48:57;;;;;;;7.28;3.28;;;;;;;1.93;nan;94910.81;4937505;28;20709;-67
2020/12/30 04:51:24;;;;;;;4.38;2.55;;;;;;;1.87;nan;94906.03;4935931;28;20227;-67
2020/12/30 04:53:53;;;;;;;5.05;2.85;;;;;;;1.80;nan;94910.69;4939187;28;20638;-68
2020/12/30 04:56:45;;;;;;;9.23;3.10;;;;;;;1.74;nan;94918.72;4937645;28;20199;-69
2020/12/30 04:59:13;;;;;;;7.55;2.40;;;;;;;1.68;nan;94913.91;4931667;28;20472;-68
2020/12/30 05:01:59;;;;;;;7.85;2.38;;;;;;;1.63;nan;94917.66;4937675;28;20660;-67
2020/12/30 05:04:27;;;;;;;5.13;2.50;;;;;;;1.60;nan;94922.91;4951954;28;20226;-68
2020/12/30 05:06:56;;;;;;;7.00;3.25;;;;;;;1.72;nan;94925.66;4938314;28;20557;-69
2020/12/30 05:09:24;;;;;;;3.40;2.47;;;;;;;1.68;nan;94926.72;4939154;28;20585;-68
2020/12/30 05:11:51;;;;;;;5.03;2.53;;;;;;;1.67;nan;94929.38;4931394;28;20910;-68
2020/12/30 05:14:18;;;;;;;3.60;2.60;;;;;;;1.76;nan;94922.00;4937843;28;20878;-69
2020/12/30 05:16:45;;;;;;;4.47;2.25;;;;;;;1.71;nan;94929.09;4937986;28;20598;-68
2020/12/30 05:19:12;;;;;;;8.30;2.42;;;;;;;1.62;nan;94934.75;4937879;28;20234;-69
2020/12/30 05:21:38;;;;;;;2.53;1.95;;;;;;;1.53;nan;94930.13;4937022;28;20317;-68
2020/12/30 05:24:05;;;;;;;4.07;1.90;;;;;;;1.46;nan;94933.09;4946042;28;20289;-68
2020/12/30 05:26:33;;;;;;;5.40;2.35;;;;;;;1.45;nan;94929.72;4937162;28;20226;-67
2020/12/30 05:29:00;;;;;;;3.00;1.73;;;;;;;1.49;nan;94928.63;4932947;28;20697;-67
2020/12/30 05:31:29;;;;;;;3.15;2.35;;;;;;;1.49;nan;94933.75;4937246;28;20254;-67
2020/12/30 05:33:56;;;;;;;2.40;1.95;;;;;;;1.46;nan;94933.09;4937971;28;20290;-68
2020/12/30 05:36:25;;;;;;;2.67;1.83;;;;;;;1.45;nan;94932.28;4937133;28;20694;-68
2020/12/30 05:38:53;;;;;;;7.18;2.50;;;;;;;1.44;nan;94934.91;4938332;28;20205;-68
2020/12/30 05:41:20;;;;;;;4.22;1.95;;;;;;;1.49;nan;94940.63;4940155;28;20223;-67
2020/12/30 05:43:47;;;;;;;5.45;1.70;;;;;;;1.52;nan;94948.97;4936898;28;20568;-68
2020/12/30 05:46:29;;;;;;;5.47;2.08;;;;;;;1.48;nan;94932.09;4945229;28;20282;-67
2020/12/30 05:48:56;;;;;;;6.65;2.10;;;;;;;1.61;nan;94948.47;4936202;28;20693;-68
2020/12/30 05:51:27;;;;;;;2.38;1.95;;;;;;;1.64;nan;94948.28;4944360;28;20744;-68
2020/12/30 05:54:11;;;;;;;2.08;1.85;;;;;;;1.65;nan;94947.41;4937031;28;20290;-68
2020/12/30 05:56:38;;;;;;;3.55;1.38;;;;;;;1.69;nan;94950.66;4935951;28;20246;-67
2020/12/30 05:59:06;;;;;;;6.57;2.33;;;;;;;1.72;nan;94956.44;4937205;28;20203;-68
2020/12/30 06:01:39;;;;;;;4.65;3.03;;;;;;;1.71;nan;94956.50;4936509;28;20223;-67
2020/12/30 06:04:21;;;;;;;5.10;2.10;;;;;;;1.73;nan;94962.38;4933362;28;20265;-68
2020/12/30 06:06:48;;;;;;;7.75;2.60;;;;;;;1.79;nan;94962.88;4935105;28;20636;-68
2020/12/30 06:09:17;;;;;;;4.07;2.85;;;;;;;1.79;nan;94962.88;4937509;28;20191;-68
2020/12/30 06:11:54;;;;;;;5.22;2.65;;;;;;;1.85;nan;94969.41;4936009;28;20317;-68
2020/12/30 06:14:22;;;;;;;3.25;2.05;;;;;;;1.85;nan;94971.97;4942971;28;20198;-67
2020/12/30 06:16:49;;;;;;;4.88;2.65;;;;;;;1.83;nan;94976.38;4949724;28;20246;-67
2020/12/30 06:19:16;;;;;;;4.45;2.55;;;;;;;1.85;nan;94974.53;4944458;28;20587;-69
2020/12/30 06:21:44;;;;;;;2.55;1.90;;;;;;;1.89;nan;94979.41;4940066;28;20309;-69
2020/12/30 06:24:13;;;;;;;5.35;1.90;;;;;;;1.93;nan;94980.88;4942739;28;20290;-69
2020/12/30 06:26:40;;;;;;;3.55;1.70;;;;;;;1.90;nan;94988.75;4942373;28;20245;-68
2020/12/30 06:29:12;;;;;;;2.83;1.90;;;;;;;1.92;nan;94986.94;4943076;28;20732;-70
2020/12/30 06:31:44;;;;;;;6.15;1.98;;;;;;;1.93;nan;94998.03;4942735;28;20301;-70
2020/12/30 06:34:13;;;;;;;3.97;1.98;;;;;;;1.92;nan;94989.50;4942352;28;20289;-70
2020/12/30 06:36:41;;;;;;;2.92;1.40;;;;;;;1.82;nan;94993.47;4942904;28;20250;-70
2020/12/30 06:39:18;;;;;;;3.45;1.65;;;;;;;1.84;nan;95003.66;4949440;28;20566;-69
2020/12/30 06:42:03;;;;;;;6.15;2.22;;;;;;;1.82;nan;95011.44;4948787;28;20310;-70
2020/12/30 06:44:41;;;;;;;10.70;2.58;;;;;;;1.78;nan;95011.69;4937331;28;20243;-69
2020/12/30 06:47:09;;;;;;;7.40;2.17;;;;;;;1.82;nan;95008.84;4938412;28;20329;-69
2020/12/30 06:49:38;;;;;;;7.57;1.75;;;;;;;1.84;nan;95009.59;4943125;28;20713;-70
2020/12/30 06:52:24;;;;;;;4.68;2.20;;;;;;;1.90;nan;95005.88;4942221;28;20277;-69
2020/12/30 06:54:51;;;;;;;3.88;2.03;;;;;;;1.94;nan;95013.34;4940749;28;20614;-67
2020/12/30 06:57:36;;;;;;;8.20;1.70;;;;;;;1.96;nan;95015.78;4942552;28;20721;-69
2020/12/30 07:00:33;;;;;;;3.33;1.75;;;;;;;2.04;nan;95014.47;4936143;28;20837;-69
2020/12/30 07:03:17;;;;;;;3.65;1.50;;;;;;;2.05;nan;95020.44;4937654;28;20824;-67
2020/12/30 07:05:45;;;;;;;5.70;1.38;;;;;;;2.04;nan;95023.91;4942239;28;20799;-66
2020/12/30 07:08:32;;;;;;;4.05;1.48;;;;;;;2.07;nan;95022.00;4941298;28;20335;-67
2020/12/30 07:10:59;;;;;;;4.47;2.20;;;;;;;1.99;nan;95031.84;4941768;28;20211;-67
2020/12/30 07:13:27;;;;;;;4.20;1.63;;;;;;;1.94;nan;95031.28;4936502;28;20262;-67
2020/12/30 07:16:12;;;;;;;12.05;4.13;;;;;;;1.88;nan;95034.19;4943337;28;20694;-67
2020/12/30 07:18:42;;;;;;;8.57;3.92;;;;;;;1.84;nan;95030.13;4942337;28;20666;-69
2020/12/30 07:21:13;;;;;;;5.80;2.10;;;;;;;1.95;nan;95038.06;4941984;28;20670;-69
2020/12/30 07:23:42;;;;;;;5.75;2.13;;;;;;;2.01;nan;95045.44;4939083;28;20330;-69
2020/12/30 07:26:15;;;;;;;7.90;1.98;;;;;;;2.01;nan;95045.44;4939036;28;20400;-69
2020/12/30 07:28:43;;;;;;;4.13;1.52;;;;;;;1.95;nan;95056.03;4938551;28;20306;-70
2020/12/30 07:31:10;;;;;;;2.80;1.45;;;;;;;2.03;nan;95066.69;4938970;28;20239;-70
2020/12/30 07:33:37;;;;;;;5.07;1.55;;;;;;;2.12;nan;95067.94;4938639;28;20638;-69
2020/12/30 07:36:05;;;;;;;4.05;2.00;;;;;;;2.18;nan;95072.72;4939139;28;20695;-69
2020/12/30 07:38:33;;;;;;;4.25;2.10;;;;;;;2.24;nan;95080.94;4938150;28;20670;-69
2020/12/30 07:41:05;;;;;;;6.78;1.73;;;;;;;2.28;nan;95090.13;4934422;28;20561;-67
2020/12/30 07:43:45;;;;;;;2.65;1.35;;;;;;;2.31;nan;95084.84;4937198;28;20246;-67
2020/12/30 07:46:16;;;;;;;3.03;1.83;;;;;;;2.38;nan;95088.72;4935304;28;20875;-67
2020/12/30 07:48:43;;;;;;;2.25;1.60;;;;;;;2.40;nan;95088.63;4936004;28;20317;-68
2020/12/30 07:51:10;;;;;;;5.13;2.00;;;;;;;2.43;nan;95093.59;4938934;28;20591;-67
2020/12/30 07:53:38;;;;;;;2.35;1.42;;;;;;;2.58;nan;95103.84;4939123;28;20195;-67
2020/12/30 07:56:04;;;;;;;4.20;1.30;;;;;;;2.80;nan;95106.06;4938820;28;20282;-69
2020/12/30 07:58:32;;;;;;;2.75;1.65;;;;;;;3.31;nan;95108.25;4938588;28;20223;-68
2020/12/30 08:00:59;;;;;;;7.55;2.15;;;;;;;3.44;nan;95116.91;4939169;28;20253;-69
2020/12/30 08:03:26;;;;;;;7.40;1.67;;;;;;;3.37;nan;95116.41;4938436;28;20589;-70
2020/12/30 08:05:54;;;;;;;8.05;1.90;;;;;;;3.23;nan;95121.53;4939414;28;20203;-69
2020/12/30 08:08:20;;;;;;;4.32;1.60;;;;;;;3.28;nan;95122.09;4937606;28;20307;-69
2020/12/30 08:10:56;;;;;;;5.65;1.40;;;;;;;3.26;nan;95125.66;4939333;28;20479;-69
2020/12/30 08:13:22;;;;;;;3.05;1.88;;;;;;;3.10;nan;95130.84;4942190;28;21035;-69
2020/12/30 08:15:53;;;;;;;2.15;1.40;;;;;;;2.95;nan;95134.28;4938711;28;20205;-69
2020/12/30 08:18:19;;;;;;;4.57;1.25;;;;;;;2.89;nan;95128.66;4938676;28;20896;-69
2020/12/30 08:20:46;;;;;;;4.28;1.35;;;;;;;2.71;nan;95133.06;4939000;28;20286;-69
2020/12/30 08:23:18;;;;;;;5.53;1.45;;;;;;;2.67;nan;95134.16;4941068;28;20616;-69
2020/12/30 08:25:48;;;;;;;4.65;1.58;;;;;;;2.63;nan;95137.81;4944087;28;20201;-69
2020/12/30 08:28:15;;;;;;;2.58;1.75;;;;;;;2.65;nan;95137.72;4937827;28;20302;-69
2020/12/30 08:30:43;;;;;;;5.25;1.40;;;;;;;2.62;nan;95140.44;4939477;28;20514;-69
2020/12/30 08:33:12;;;;;;;2.33;1.30;;;;;;;2.63;nan;95129.25;4940806;28;20580;-69
2020/12/30 08:35:46;;;;;;;4.75;2.10;;;;;;;2.73;nan;95143.28;4939816;28;20625;-68
2020/12/30 08:38:18;;;;;;;11.75;2.10;;;;;;;2.81;nan;95146.25;4938491;28;20885;-67
2020/12/30 08:40:53;;;;;;;9.40;2.25;;;;;;;2.83;nan;95141.84;4940292;28;20366;-67
2020/12/30 08:43:27;;;;;;;2.65;1.55;;;;;;;2.98;nan;95148.69;4938736;28;20662;-67
2020/12/30 08:46:11;;;;;;;6.22;1.45;;;;;;;3.18;nan;95151.81;4942174;28;20235;-67
2020/12/30 08:48:56;;;;;;;4.38;1.83;;;;;;;3.34;nan;95151.75;4936767;28;20337;-67
2020/12/30 08:51:30;;;;;;;3.28;1.95;;;;;;;3.43;nan;95154.63;4937636;28;20294;-67
2020/12/30 08:53:56;;;;;;;3.30;1.55;;;;;;;3.50;nan;95153.38;4937981;28;20225;-67
2020/12/30 08:56:24;;;;;;;4.30;2.15;;;;;;;3.28;nan;95154.66;4938057;28;20211;-67
2020/12/30 08:58:53;;;;;;;7.82;2.00;;;;;;;3.28;nan;95157.25;4943024;28;20232;-67
2020/12/30 09:01:21;;;;;;;3.63;1.92;;;;;;;3.32;nan;95154.41;4936980;28;20202;-67
2020/12/30 09:03:48;;;;;;;3.13;1.40;;;;;;;3.33;nan;95156.09;4937787;28;20619;-67
2020/12/30 09:06:28;;;;;;;6.35;1.55;;;;;;;3.50;nan;95163.66;4936541;28;20675;-66
2020/12/30 09:08:55;;;;;;;5.43;1.60;;;;;;;3.53;nan;95163.47;4938747;28;20581;-67
2020/12/30 09:11:22;;;;;;;6.07;1.98;;;;;;;3.47;nan;95157.84;4939949;28;20807;-67
2020/12/30 09:13:50;;;;;;;8.95;2.40;;;;;;;3.58;nan;95161.47;4938416;28;20655;-67
2020/12/30 09:16:17;;;;;;;22.42;9.23;;;;;;;3.58;nan;95165.75;4937505;28;20265;-67
2020/12/30 09:18:49;;;;;;;6.28;2.33;;;;;;;3.55;nan;95171.09;4938950;28;20766;-67
2020/12/30 09:21:27;;;;;;;2.72;1.42;;;;;;;3.47;nan;95160.44;4936395;28;20714;-67
2020/12/30 09:23:54;;;;;;;3.50;1.50;;;;;;;3.35;nan;95155.97;4937323;28;20269;-69
2020/12/30 09:26:28;;;;;;;4.03;1.50;;;;;;;3.37;nan;95178.13;4937504;28;20701;-67
2020/12/30 09:28:56;;;;;;;3.63;1.30;;;;;;;3.25;nan;95181.41;4939525;28;20742;-66
2020/12/30 09:31:23;;;;;;;6.38;1.35;;;;;;;3.19;nan;95174.03;4937790;28;20287;-69
2020/12/30 09:33:50;;;;;;;5.97;1.00;;;;;;;3.16;nan;95179.31;4937704;28;20207;-69
2020/12/30 09:36:16;;;;;;;3.05;1.30;;;;;;;3.19;nan;95184.31;4939209;28;20294;-69
2020/12/30 09:38:43;;;;;;;12.80;1.38;;;;;;;3.19;nan;95186.88;4936044;28;20633;-67
2020/12/30 09:41:15;;;;;;;1.70;0.75;;;;;;;3.21;nan;95182.47;4937356;28;20290;-69
2020/12/30 09:43:46;;;;;;;3.05;1.13;;;;;;;3.10;nan;95181.41;4938236;28;20291;-69
2020/12/30 09:46:22;;;;;;;1.77;1.25;;;;;;;3.07;nan;95182.41;4936577;28;20204;-69
2020/12/30 09:48:49;;;;;;;5.57;1.42;;;;;;;3.04;nan;95189.47;4937819;28;20819;-69
2020/12/30 09:51:17;;;;;;;5.60;1.23;;;;;;;3.05;nan;95191.97;4936562;28;20927;-69
2020/12/30 09:53:44;;;;;;;6.10;1.92;;;;;;;3.06;nan;95192.78;4932277;28;20725;-69
2020/12/30 09:56:15;;;;;;;6.18;1.90;;;;;;;3.05;nan;95191.97;4936872;28;20257;-69
2020/12/30 09:58:42;;;;;;;9.07;1.38;;;;;;;3.13;nan;95194.94;4938528;28;20698;-69
2020/12/30 10:01:09;;;;;;;2.47;1.20;;;;;;;3.11;nan;95198.50;4938860;28;20196;-69
2020/12/30 10:03:36;;;;;;;3.90;1.50;;;;;;;3.11;nan;95199.34;4944004;28;20278;-67
2020/12/30 10:06:03;;;;;;;2.50;1.30;;;;;;;3.18;nan;95195.50;4936362;28;20863;-67
2020/12/30 10:08:30;;;;;;;1.95;1.40;;;;;;;3.16;nan;95199.06;4937724;28;20345;-67
2020/12/30 10:10:57;;;;;;;2.10;1.00;;;;;;;3.27;nan;95197.56;4938821;28;20292;-67
2020/12/30 10:13:24;;;;;;;2.58;1.70;;;;;;;3.37;nan;95201.25;4936632;28;20568;-67
2020/12/30 10:15:51;;;;;;;7.22;3.65;;;;;;;3.45;nan;95204.22;4936580;28;20654;-67
2020/12/30 10:18:17;;;;;;;2.33;1.10;;;;;;;3.41;nan;95209.63;4936705;28;20777;-67
2020/12/30 10:20:46;;;;;;;1.83;1.00;;;;;;;3.46;nan;95210.22;4934603;28;20291;-67
2020/12/30 10:23:13;;;;;;;3.25;1.20;;;;;;;3.31;nan;95186.16;4936906;28;20227;-67
2020/12/30 10:25:40;;;;;;;4.70;1.23;;;;;;;3.47;nan;95207.56;4937713;28;20230;-67
2020/12/30 10:28:06;;;;;;;4.25;1.10;;;;;;;3.41;nan;95207.91;4935707;28;20322;-67
2020/12/30 10:30:34;;;;;;;1.95;1.17;;;;;;;3.39;nan;95208.91;4937345;28;20628;-67
2020/12/30 10:33:11;;;;;;;1.80;0.90;;;;;;;3.46;nan;95208.44;4936051;28;20693;-68
2020/12/30 10:35:39;;;;;;;2.10;1.40;;;;;;;3.51;nan;95209.03;4937225;28;20635;-69
2020/12/30 10:38:06;;;;;;;5.78;1.40;;;;;;;3.55;nan;95213.09;4935756;28;20742;-69
2020/12/30 10:40:33;;;;;;;2.30;1.30;;;;;;;3.49;nan;95218.56;4936852;28;20648;-68
2020/12/30 10:43:03;;;;;;;1.40;0.85;;;;;;;3.46;nan;95217.91;4930745;28;20487;-69
2020/12/30 10:45:31;;;;;;;3.35;1.20;;;;;;;3.51;nan;95221.88;4936795;28;20274;-69
2020/12/30 10:47:58;;;;;;;3.15;1.38;;;;;;;3.55;nan;95218.22;4938979;28;20219;-69
2020/12/30 10:50:25;;;;;;;3.35;1.30;;;;;;;3.55;nan;95197.66;4937702;28;20775;-67
2020/12/30 10:52:52;;;;;;;4.10;1.42;;;;;;;3.70;nan;95217.34;4936321;28;20670;-67
2020/12/30 10:55:19;;;;;;;3.90;1.48;;;;;;;3.69;nan;95213.13;4936334;28;20650;-67
2020/12/30 10:57:46;;;;;;;3.72;1.30;;;;;;;3.73;nan;95219.75;4936298;28;20745;-69
2020/12/30 11:00:13;;;;;;;2.35;1.48;;;;;;;3.76;nan;95214.41;4939250;28;20288;-68
2020/12/30 11:02:40;;;;;;;4.13;0.98;;;;;;;3.68;nan;95221.75;4946162;28;20731;-69
2020/12/30 11:05:06;;;;;;;2.80;1.48;;;;;;;3.70;nan;95224.22;4940129;28;20598;-69
2020/12/30 11:07:34;;;;;;;2.10;1.00;;;;;;;3.71;nan;95224.16;4939728;28;20222;-70
2020/12/30 11:10:00;;;;;;;3.53;1.25;;;;;;;3.71;nan;95220.75;4935710;28;20776;-69
2020/12/30 11:12:28;;;;;;;1.73;1.25;;;;;;;3.67;nan;95232.94;4940158;28;20338;-69
2020/12/30 11:14:55;;;;;;;6.10;1.52;;;;;;;3.68;nan;95228.66;4940723;28;20599;-69
2020/12/30 11:17:23;;;;;;;5.47;1.30;;;;;;;3.75;nan;95225.63;4938044;28;20227;-69
2020/12/30 11:19:51;;;;;;;4.30;1.45;;;;;;;3.70;nan;95227.66;4940822;28;20693;-69
2020/12/30 11:22:18;;;;;;;5.20;1.45;;;;;;;3.67;nan;95225.22;4938529;28;20571;-69
2020/12/30 11:24:46;;;;;;;2.47;1.45;;;;;;;3.70;nan;95224.22;4940137;28;20202;-69
2020/12/30 11:27:13;;;;;;;3.25;1.20;;;;;;;3.72;nan;95225.81;4942940;28;20292;-69
2020/12/30 11:29:40;;;;;;;1.85;1.10;;;;;;;3.64;nan;95207.41;4938789;28;20310;-69
2020/12/30 11:32:07;;;;;;;3.90;1.13;;;;;;;3.76;nan;95229.84;4939770;28;20747;-69
2020/12/30 11:34:34;;;;;;;1.92;1.25;;;;;;;3.70;nan;95230.22;4946915;28;20705;-69
2020/12/30 11:37:01;;;;;;;1.60;1.25;;;;;;;3.73;nan;95232.59;4935926;28;20709;-69
2020/12/30 11:39:29;;;;;;;5.13;1.52;;;;;;;3.81;nan;95229.59;4933841;28;20202;-69
2020/12/30 11:41:55;;;;;;;5.43;1.83;;;;;;;3.73;nan;95222.31;4938791;28;20729;-69
2020/12/30 11:44:22;;;;;;;2.17;1.25;;;;;;;3.74;nan;95229.09;4939579;28;20309;-69
2020/12/30 11:46:53;;;;;;;4.50;1.35;;;;;;;3.75;nan;95235.91;4939065;28;20611;-69
2020/12/30 11:49:20;;;;;;;2.25;1.73;;;;;;;3.76;nan;95236.75;4939094;28;20289;-69
2020/12/30 11:51:47;;;;;;;2.80;1.55;;;;;;;3.79;nan;95239.13;4937731;28;20614;-69
2020/12/30 11:54:18;;;;;;;2.67;1.83;;;;;;;3.85;nan;95237.06;4938887;28;20719;-69
2020/12/30 11:56:45;;;;;;;2.63;1.73;;;;;;;3.95;nan;95232.22;4935393;28;20258;-69
2020/12/30 11:59:12;;;;;;;4.68;1.80;;;;;;;3.94;nan;95228.78;4935564;28;20662;-69
2020/12/30 12:01:42;;;;;;;3.13;2.00;;;;;;;3.84;nan;95224.25;4944567;28;20694;-69
2020/12/30 12:04:10;;;;;;;2.58;1.40;;;;;;;3.98;nan;95231.09;4938409;28;20210;-69
2020/12/30 12:06:36;;;;;;;5.15;2.28;;;;;;;3.98;nan;95243.13;4937939;28;20332;-69